Time;durP1;ratioP1;P1;durP2;ratioP2;P2;SDS_P1;SDS_P2;PMS_P1;PMS_P2;Temp;Humidity;BMP_temperature;BMP_pressure;BME280_temperature;BME280_humidity;BME280_pressure;Samples;Min_cycle;Max_cycle;Signal;HPM_P1;HPM_P2
2022/09/04 00:00:11;;;;;;;5.35;3.65;;;;;;;9.98;100.00;100263.72;1720676;81;21403;-53
2022/09/04 00:03:09;;;;;;;5.58;4.10;;;;;;;9.94;100.00;100271.52;1675609;84;21064;-53
2022/09/04 00:05:51;;;;;;;7.33;4.28;;;;;;;9.94;100.00;100266.13;1664621;83;21126;-53
2022/09/04 00:08:47;;;;;;;4.62;4.22;;;;;;;9.96;100.00;100270.96;1726143;80;21066;-53
2022/09/04 00:11:34;;;;;;;4.30;3.35;;;;;;;9.97;100.00;100272.25;1718520;80;21449;-53
2022/09/04 00:14:06;;;;;;;6.45;4.37;;;;;;;9.96;100.00;100272.30;1721315;80;21042;-53
2022/09/04 00:16:47;;;;;;;4.78;4.37;;;;;;;9.86;100.00;100273.14;1726536;80;21038;-53
2022/09/04 00:19:47;;;;;;;5.28;4.00;;;;;;;9.76;100.00;100279.78;1726193;80;21356;-53
2022/09/04 00:22:28;;;;;;;7.47;5.80;;;;;;;9.62;100.00;100276.23;1715515;81;21504;-53
2022/09/04 00:25:11;;;;;;;6.45;4.92;;;;;;;9.49;100.00;100281.19;1722097;81;21494;-53
2022/09/04 00:27:44;;;;;;;5.50;4.25;;;;;;;9.41;100.00;100281.05;1717937;80;21039;-53
2022/09/04 00:30:21;;;;;;;7.72;4.20;;;;;;;9.33;100.00;100279.97;1731820;80;21049;-53
2022/09/04 00:33:01;;;;;;;4.03;3.62;;;;;;;9.25;100.00;100278.02;1667656;84;21082;-53
2022/09/04 00:35:30;;;;;;;4.90;4.37;;;;;;;9.24;100.00;100284.31;1697622;81;21772;-53
2022/09/04 00:38:41;;;;;;;5.62;3.67;;;;;;;9.26;100.00;100281.59;1725122;80;21124;-53
2022/09/04 00:41:52;;;;;;;6.00;3.52;;;;;;;9.30;100.00;100288.59;1720894;80;21013;-53
2022/09/04 00:45:13;;;;;;;5.08;4.05;;;;;;;9.32;100.00;100281.36;1720302;80;21496;-53
2022/09/04 00:48:00;;;;;;;5.33;4.30;;;;;;;9.30;100.00;100282.75;1722191;80;21073;-52
2022/09/04 00:51:15;;;;;;;6.85;5.20;;;;;;;9.33;100.00;100281.78;1725721;80;21149;-53
2022/09/04 00:54:26;;;;;;;6.78;3.92;;;;;;;9.34;100.00;100280.85;1719975;80;21081;-52
2022/09/04 00:57:20;;;;;;;7.10;4.45;;;;;;;9.35;100.00;100279.92;1720005;80;20976;-52
2022/09/04 01:00:12;;;;;;;5.10;4.60;;;;;;;9.30;100.00;100274.69;1647581;84;21073;-52
2022/09/04 01:03:15;;;;;;;5.30;4.80;;;;;;;9.20;100.00;100275.94;1732490;80;21340;-50
2022/09/04 01:06:23;;;;;;;4.20;3.57;;;;;;;9.09;100.00;100276.79;1724436;80;21473;-47
2022/09/04 01:09:10;;;;;;;4.93;3.97;;;;;;;9.02;100.00;100281.46;1725528;80;21470;-51
2022/09/04 01:11:59;;;;;;;5.80;3.47;;;;;;;8.97;100.00;100280.75;1727722;80;21058;-47
2022/09/04 01:14:43;;;;;;;3.90;3.43;;;;;;;8.89;100.00;100282.81;1713034;80;21102;-50
2022/09/04 01:17:39;;;;;;;5.33;3.90;;;;;;;8.84;100.00;100280.77;1729293;80;21758;-48
2022/09/04 01:20:32;;;;;;;3.80;3.47;;;;;;;8.84;100.00;100278.53;1725117;80;21220;-46
2022/09/04 01:23:22;;;;;;;4.60;3.50;;;;;;;8.84;100.00;100283.45;1728307;80;21061;-50
2022/09/04 01:26:19;;;;;;;7.77;4.43;;;;;;;8.83;100.00;100276.31;1731065;80;21395;-48
2022/09/04 01:29:06;;;;;;;5.30;4.47;;;;;;;8.84;100.00;100282.56;1730544;80;21064;-47
2022/09/04 01:32:04;;;;;;;6.33;4.15;;;;;;;8.81;100.00;100283.53;1726187;80;21033;-48
2022/09/04 01:34:38;;;;;;;6.77;4.87;;;;;;;8.76;100.00;100280.59;1729867;80;21532;-48
2022/09/04 01:37:40;;;;;;;5.75;4.95;;;;;;;8.70;100.00;100283.88;1732130;80;25549;-48
2022/09/04 01:40:24;;;;;;;5.20;4.40;;;;;;;8.66;100.00;100290.28;1730603;80;21064;-47
2022/09/04 01:43:01;;;;;;;4.50;4.10;;;;;;;8.64;100.00;100281.86;1729880;80;21129;-49
2022/09/04 01:45:52;;;;;;;6.47;4.70;;;;;;;8.62;100.00;100276.99;1725036;80;21060;-47
2022/09/04 01:48:30;;;;;;;4.70;4.20;;;;;;;8.60;100.00;100278.84;1738140;80;21226;-51
2022/09/04 01:50:58;;;;;;;6.13;4.67;;;;;;;8.55;100.00;100279.46;1732075;80;21101;-48
2022/09/04 01:53:25;;;;;;;7.90;5.20;;;;;;;8.48;100.00;100276.56;1671857;83;20890;-47
2022/09/04 01:56:02;;;;;;;6.63;4.40;;;;;;;8.45;100.00;100275.30;1729108;80;21038;-47
2022/09/04 01:58:52;;;;;;;7.07;5.47;;;;;;;8.41;100.00;100273.66;1728690;80;21101;-48
2022/09/04 02:01:38;;;;;;;5.03;4.53;;;;;;;8.38;100.00;100274.63;1730790;80;21100;-48
2022/09/04 02:04:22;;;;;;;;;;;;;;;8.37;100.00;100273.33;1734137;80;21036;-49
2022/09/04 02:07:06;;;;;;;8.63;5.20;;;;;;;8.34;100.00;100271.14;1739785;80;20170;-47
2022/09/04 02:09:50;;;;;;;10.07;6.27;;;;;;;8.27;100.00;100278.05;1733050;80;20899;-47
2022/09/04 02:13:01;;;;;;;10.43;6.27;;;;;;;8.17;100.00;100275.23;1735697;80;21351;-48
2022/09/04 02:15:57;;;;;;;7.87;5.00;;;;;;;8.11;100.00;100275.42;1724622;80;21093;-47
2022/09/04 02:19:02;;;;;;;6.90;4.90;;;;;;;8.04;100.00;100280.09;1729307;80;20905;-46
2022/09/04 02:21:34;;;;;;;4.72;4.28;;;;;;;7.96;100.00;100286.14;1720223;80;20860;-51
2022/09/04 02:24:34;;;;;;;7.80;4.87;;;;;;;7.90;100.00;100287.67;1720097;80;20943;-48
2022/09/04 02:27:11;;;;;;;7.63;4.70;;;;;;;7.86;100.00;100284.19;1700235;80;21034;-47
2022/09/04 02:30:06;;;;;;;5.10;4.30;;;;;;;7.87;100.00;100283.27;1721590;80;21087;-48
2022/09/04 02:33:06;;;;;;;5.23;4.40;;;;;;;7.86;100.00;100278.83;1723341;80;20929;-49
2022/09/04 02:35:52;;;;;;;11.33;5.97;;;;;;;7.80;100.00;100283.49;1725756;80;21030;-48
2022/09/04 02:38:50;;;;;;;8.08;6.50;;;;;;;7.76;100.00;100281.81;1724281;80;21048;-49
2022/09/04 02:41:30;;;;;;;7.60;6.83;;;;;;;7.74;100.00;100283.19;1670552;84;21532;-49
2022/09/04 02:44:11;;;;;;;11.03;7.37;;;;;;;7.71;100.00;100284.63;1729969;80;21194;-49
2022/09/04 02:47:25;;;;;;;9.70;7.87;;;;;;;7.67;100.00;100286.97;1708718;81;21065;-51
2022/09/04 02:50:27;;;;;;;7.67;6.90;;;;;;;7.62;100.00;100288.02;1720382;80;21056;-48
2022/09/04 02:53:37;;;;;;;9.47;5.73;;;;;;;7.53;100.00;100282.45;1717732;80;21819;-47
2022/09/04 02:56:12;;;;;;;6.57;5.70;;;;;;;7.47;100.00;100280.84;1722096;80;21136;-49
2022/09/04 02:59:16;;;;;;;7.27;5.53;;;;;;;7.42;100.00;100285.88;1718888;80;21195;-47
2022/09/04 03:01:56;;;;;;;6.47;5.73;;;;;;;7.39;100.00;100290.00;1736360;80;22059;-47
2022/09/04 03:04:48;;;;;;;5.47;4.97;;;;;;;7.38;100.00;100297.61;1725320;81;21541;-48
2022/09/04 03:07:36;;;;;;;6.57;5.00;;;;;;;7.36;100.00;100288.73;1710584;80;21101;-48
2022/09/04 03:10:17;;;;;;;7.33;6.00;;;;;;;7.35;100.00;100282.49;1728046;80;21080;-48
2022/09/04 03:13:06;;;;;;;6.17;5.47;;;;;;;7.32;100.00;100301.31;1725323;80;21011;-47
2022/09/04 03:15:59;;;;;;;7.30;6.13;;;;;;;7.25;100.00;100291.69;1724946;80;21115;-48
2022/09/04 03:18:52;;;;;;;6.57;4.73;;;;;;;7.23;100.00;100298.02;1730070;80;21038;-45
2022/09/04 03:21:29;;;;;;;5.67;5.17;;;;;;;7.25;100.00;100300.17;1643810;85;21415;-48
2022/09/04 03:24:06;;;;;;;6.80;6.10;;;;;;;7.22;100.00;100301.16;1647151;80;21075;-47
2022/09/04 03:26:38;;;;;;;8.27;5.87;;;;;;;7.17;100.00;100293.69;1727115;80;21453;-48
2022/09/04 03:29:20;;;;;;;5.33;4.83;;;;;;;7.14;100.00;100299.14;1733430;80;21061;-51
2022/09/04 03:32:28;;;;;;;8.97;5.43;;;;;;;7.12;100.00;100301.84;1682788;84;21153;-45
2022/09/04 03:35:24;;;;;;;10.20;5.77;;;;;;;7.08;100.00;100297.48;1727958;80;21091;-49
2022/09/04 03:38:23;;;;;;;8.83;5.23;;;;;;;7.03;100.00;100307.89;1732470;80;21062;-46
2022/09/04 03:41:14;;;;;;;5.67;4.70;;;;;;;7.02;100.00;100308.80;1735837;80;22237;-47
2022/09/04 03:44:10;;;;;;;8.00;4.83;;;;;;;7.01;100.00;100306.58;1729052;80;21142;-48
2022/09/04 03:47:16;;;;;;;7.00;5.77;;;;;;;7.06;100.00;100313.18;1732689;80;21390;-49
2022/09/04 03:50:05;;;;;;;7.70;6.37;;;;;;;7.11;100.00;100309.91;1720517;80;21052;-48
2022/09/04 03:52:58;;;;;;;7.57;4.90;;;;;;;7.16;100.00;100318.23;1728271;80;21162;-52
2022/09/04 03:55:35;;;;;;;8.93;6.03;;;;;;;7.18;100.00;100310.17;1726881;80;22387;-48
2022/09/04 03:58:37;;;;;;;10.47;7.00;;;;;;;7.18;100.00;100309.72;1724224;80;21465;-47
2022/09/04 04:01:21;;;;;;;9.33;7.00;;;;;;;7.16;100.00;100307.98;1710749;80;21337;-48
2022/09/04 04:03:59;;;;;;;11.17;6.90;;;;;;;7.15;100.00;100307.56;1731344;80;21024;-47
2022/09/04 04:06:51;;;;;;;9.40;6.47;;;;;;;7.16;100.00;100317.36;1724675;80;21741;-47
2022/09/04 04:09:38;;;;;;;7.93;5.97;;;;;;;7.15;100.00;100312.45;1731566;80;22097;-47
2022/09/04 04:12:13;;;;;;;8.70;6.50;;;;;;;7.16;100.00;100320.91;1721554;80;21117;-52
2022/09/04 04:14:52;;;;;;;11.27;6.10;;;;;;;7.24;100.00;100312.69;1723011;80;21052;-47
2022/09/04 04:17:59;;;;;;;12.83;7.13;;;;;;;7.42;100.00;100319.36;1720518;80;21710;-47
2022/09/04 04:20:51;;;;;;;10.47;6.40;;;;;;;7.73;100.00;100326.13;1717997;80;21698;-49
2022/09/04 04:23:55;;;;;;;9.80;6.77;;;;;;;8.11;100.00;100319.66;1730501;80;21169;-50
2022/09/04 04:26:48;;;;;;;9.40;6.53;;;;;;;8.41;100.00;100319.27;1720836;80;21061;-50
2022/09/04 04:29:49;;;;;;;7.62;6.47;;;;;;;8.66;100.00;100322.48;1718012;80;21073;-51
2022/09/04 04:32:38;;;;;;;9.47;7.70;;;;;;;8.80;100.00;100320.69;1725091;81;21519;-49
2022/09/04 04:35:37;;;;;;;13.18;8.33;;;;;;;8.93;100.00;100330.09;1717394;81;21037;-52
2022/09/04 04:38:40;;;;;;;13.53;8.07;;;;;;;9.01;100.00;100325.39;1708107;80;21503;-51
2022/09/04 04:41:21;;;;;;;10.23;6.87;;;;;;;9.08;100.00;100324.71;1718796;80;21095;-50
2022/09/04 04:44:14;;;;;;;9.70;6.17;;;;;;;9.17;100.00;100324.41;1730535;80;22280;-50
2022/09/04 04:47:06;;;;;;;7.05;5.85;;;;;;;9.36;100.00;100327.33;1715981;80;21044;-50
2022/09/04 04:50:22;;;;;;;7.45;6.30;;;;;;;9.62;100.00;100318.36;1689138;82;21523;-49
2022/09/04 04:53:20;;;;;;;10.85;6.03;;;;;;;9.85;100.00;100324.70;1672621;84;22936;-52
2022/09/04 04:56:30;;;;;;;8.65;6.47;;;;;;;10.11;100.00;100321.05;1721378;80;21053;-51
2022/09/04 04:59:26;;;;;;;9.35;6.62;;;;;;;10.30;100.00;100327.97;1723036;80;21852;-50
2022/09/04 05:02:23;;;;;;;11.28;7.67;;;;;;;10.49;100.00;100326.34;1733595;80;20919;-51
2022/09/04 05:05:01;;;;;;;23.20;7.58;;;;;;;10.68;100.00;100333.70;1706388;80;21029;-51
2022/09/04 05:07:51;;;;;;;10.25;7.00;;;;;;;10.84;100.00;100332.14;1735558;80;21822;-53
2022/09/04 05:10:36;;;;;;;8.78;7.50;;;;;;;11.02;100.00;100337.27;1721695;80;20947;-51
2022/09/04 05:13:35;;;;;;;11.12;7.53;;;;;;;11.20;100.00;100333.34;1719247;80;21578;-51
2022/09/04 05:16:30;;;;;;;9.48;6.10;;;;;;;11.37;100.00;100340.26;1715633;80;20969;-51
2022/09/04 05:19:03;;;;;;;;;;;;;;;11.58;100.00;100338.91;1730249;80;21752;-53
2022/09/04 05:21:44;;;;;;;7.03;5.15;;;;;;;11.76;100.00;100339.50;1727672;80;21155;-53
2022/09/04 05:24:35;;;;;;;14.95;5.17;;;;;;;11.93;100.00;100341.46;1696141;80;21460;-51
2022/09/04 05:27:24;;;;;;;6.65;5.10;;;;;;;12.10;100.00;100333.48;1730499;80;21405;-47
2022/09/04 05:30:57;;;;;;;7.63;5.13;;;;;;;12.41;100.00;100335.20;1757753;78;22546;-50
2022/09/04 05:33:44;;;;;;;7.72;5.33;;;;;;;12.52;100.00;100336.03;1739332;80;21084;-50
2022/09/04 05:36:39;;;;;;;8.30;5.53;;;;;;;12.70;100.00;100344.62;1741876;80;21162;-49
2022/09/04 05:39:29;;;;;;;6.55;5.08;;;;;;;12.85;100.00;100341.17;1735329;80;21416;-52
2022/09/04 05:42:15;;;;;;;8.18;6.17;;;;;;;12.96;100.00;100343.37;1741539;80;20961;-50
2022/09/04 05:44:57;;;;;;;9.80;5.17;;;;;;;13.06;100.00;100340.62;1728736;80;20996;-49
2022/09/04 05:47:57;;;;;;;6.10;5.45;;;;;;;13.16;100.00;100341.08;1685070;80;21006;-48
2022/09/04 05:50:54;;;;;;;4.45;3.70;;;;;;;13.27;100.00;100348.67;1739639;80;21093;-52
2022/09/04 05:53:35;;;;;;;11.20;3.77;;;;;;;13.36;100.00;100346.34;1736978;80;21419;-51
2022/09/04 05:56:22;;;;;;;6.75;4.42;;;;;;;13.48;100.00;100355.69;1739219;80;21259;-50
2022/09/04 05:59:35;;;;;;;9.00;3.52;;;;;;;13.59;100.00;100355.55;1728907;80;21063;-53
2022/09/04 06:02:44;;;;;;;6.65;3.00;;;;;;;13.72;100.00;100349.49;1730770;81;21053;-51
2022/09/04 06:05:25;;;;;;;7.25;2.95;;;;;;;13.85;100.00;100353.33;1733120;80;21202;-51
2022/09/04 06:08:02;;;;;;;7.95;2.67;;;;;;;13.94;100.00;100359.62;1725099;81;21072;-50
2022/09/04 06:11:21;;;;;;;6.55;2.17;;;;;;;14.02;100.00;100339.79;1682483;80;21133;-52
2022/09/04 06:14:31;;;;;;;2.22;1.85;;;;;;;14.23;100.00;100352.64;1728928;80;21149;-49
2022/09/04 06:17:39;;;;;;;7.37;1.67;;;;;;;14.32;100.00;100356.20;1728931;80;21103;-50
2022/09/04 06:20:28;;;;;;;1.95;1.77;;;;;;;14.32;100.00;100356.20;1684899;83;21207;-49
2022/09/04 06:23:48;;;;;;;5.72;1.57;;;;;;;14.43;100.00;100360.61;1726490;80;21052;-48
2022/09/04 06:26:45;;;;;;;4.67;1.10;;;;;;;14.50;100.00;100355.72;1731448;81;21532;-52
2022/09/04 06:29:36;;;;;;;3.33;0.90;;;;;;;14.57;100.00;100367.97;1725394;80;21021;-49
2022/09/04 06:32:26;;;;;;;1.98;0.70;;;;;;;14.63;100.00;100370.36;1722406;82;21540;-48
2022/09/04 06:35:32;;;;;;;1.35;0.78;;;;;;;14.69;100.00;100371.38;1686250;82;21278;-47
2022/09/04 06:38:11;;;;;;;3.60;0.88;;;;;;;14.76;100.00;100364.64;1719790;81;21039;-48
2022/09/04 06:40:45;;;;;;;1.45;0.80;;;;;;;14.84;100.00;100364.22;1716686;81;21595;-49
2022/09/04 06:43:54;;;;;;;1.85;0.80;;;;;;;14.91;100.00;100365.13;1670571;81;21038;-51
2022/09/04 06:46:39;;;;;;;2.27;0.70;;;;;;;15.02;100.00;100368.12;1692775;81;21053;-50
2022/09/04 06:49:23;;;;;;;1.42;0.70;;;;;;;15.10;100.00;100373.98;1715287;81;21293;-49
2022/09/04 06:52:02;;;;;;;2.17;0.60;;;;;;;15.15;100.00;100375.06;1698790;81;21480;-53
2022/09/04 06:54:39;;;;;;;1.67;0.60;;;;;;;15.20;100.00;100374.81;1716219;81;21101;-52
2022/09/04 06:57:45;;;;;;;4.00;0.60;;;;;;;15.27;100.00;100381.16;1714903;81;21450;-49
2022/09/04 07:00:16;;;;;;;1.45;0.65;;;;;;;15.32;100.00;100376.80;1714616;81;22367;-49
2022/09/04 07:03:13;;;;;;;1.20;0.57;;;;;;;15.36;100.00;100368.42;1716800;81;21230;-51
2022/09/04 07:05:48;;;;;;;4.28;1.42;;;;;;;15.40;100.00;100371.33;1716099;80;21125;-52
2022/09/04 07:08:58;;;;;;;2.35;0.60;;;;;;;15.47;100.00;100373.22;1695243;81;21082;-50
2022/09/04 07:11:42;;;;;;;2.30;0.42;;;;;;;15.51;100.00;100370.23;1686578;82;21028;-49
2022/09/04 07:14:35;;;;;;;0.50;0.40;;;;;;;15.61;100.00;100376.02;1716709;81;21519;-48
2022/09/04 07:17:41;;;;;;;2.37;0.42;;;;;;;15.66;100.00;100368.47;1718364;82;21240;-50
2022/09/04 07:20:42;;;;;;;6.12;0.60;;;;;;;15.74;100.00;100374.31;1716526;81;21482;-48
2022/09/04 07:23:23;;;;;;;1.12;0.70;;;;;;;15.80;100.00;100362.23;1709522;81;22044;-52
2022/09/04 07:26:16;;;;;;;1.52;0.60;;;;;;;15.85;100.00;100370.48;1697794;82;21330;-54
2022/09/04 07:29:00;;;;;;;1.25;0.50;;;;;;;15.89;100.00;100373.42;1719810;81;21534;-50
2022/09/04 07:32:02;;;;;;;0.80;0.50;;;;;;;15.89;100.00;100370.70;1695258;82;26439;-48
2022/09/04 07:34:53;;;;;;;0.65;0.40;;;;;;;15.89;100.00;100371.19;1695139;82;21064;-51
2022/09/04 07:37:38;;;;;;;0.80;0.40;;;;;;;15.95;100.00;100372.17;1705017;82;21403;-48
2022/09/04 07:40:13;;;;;;;0.60;0.50;;;;;;;16.02;100.00;100372.18;1693372;82;21588;-48
2022/09/04 07:42:48;;;;;;;2.65;0.40;;;;;;;16.07;100.00;100370.56;1701455;82;21537;-51
2022/09/04 07:45:35;;;;;;;0.90;0.40;;;;;;;16.11;100.00;100367.55;1696350;82;21180;-48
2022/09/04 07:48:22;;;;;;;0.88;0.50;;;;;;;16.16;100.00;100367.28;1692939;82;21074;-47
2022/09/04 07:51:03;;;;;;;0.70;0.40;;;;;;;16.18;100.00;100359.89;1694266;82;21054;-52
2022/09/04 07:53:53;;;;;;;2.55;0.40;;;;;;;16.19;100.00;100367.95;1688395;82;21465;-48
2022/09/04 07:56:44;;;;;;;0.75;0.40;;;;;;;16.26;100.00;100361.16;1695394;82;21847;-49
2022/09/04 07:59:45;;;;;;;0.40;0.30;;;;;;;16.39;100.00;100369.44;1696291;82;21165;-48
2022/09/04 08:02:26;;;;;;;0.47;0.40;;;;;;;16.48;100.00;100365.27;1691233;82;21490;-49
2022/09/04 08:05:10;;;;;;;0.75;0.40;;;;;;;16.52;100.00;100360.02;1694432;82;21264;-49
2022/09/04 08:08:02;;;;;;;2.65;0.40;;;;;;;16.58;100.00;100370.53;1690049;82;21584;-49
2022/09/04 08:10:47;;;;;;;0.57;0.30;;;;;;;16.64;100.00;100371.52;1687085;82;21634;-47
2022/09/04 08:13:42;;;;;;;0.50;0.30;;;;;;;16.75;100.00;100374.92;1697653;82;21887;-49
2022/09/04 08:16:37;;;;;;;0.53;0.20;;;;;;;16.82;100.00;100376.27;1688130;82;21077;-51
2022/09/04 08:19:33;;;;;;;1.07;0.40;;;;;;;16.90;100.00;100379.37;1699625;82;22855;-49
2022/09/04 08:22:00;;;;;;;0.75;0.40;;;;;;;17.01;100.00;100384.48;1700578;82;20864;-51
2022/09/04 08:24:37;;;;;;;0.90;0.30;;;;;;;17.07;100.00;100380.52;1695840;82;21156;-51
2022/09/04 08:27:35;;;;;;;0.47;0.30;;;;;;;17.03;100.00;100383.03;1693502;82;21169;-49
2022/09/04 08:30:05;;;;;;;0.40;0.30;;;;;;;17.00;100.00;100379.17;1698883;82;20907;-47
2022/09/04 08:33:20;;;;;;;0.75;0.35;;;;;;;17.06;100.00;100377.89;1690318;82;20931;-51
2022/09/04 08:36:20;;;;;;;1.80;0.20;;;;;;;17.14;100.00;100375.55;1694126;82;20931;-47
2022/09/04 08:39:08;;;;;;;0.40;0.23;;;;;;;17.21;100.00;100364.16;1696216;82;20942;-48
2022/09/04 08:42:04;;;;;;;0.30;0.20;;;;;;;17.32;100.00;100380.66;1695937;82;21214;-49
2022/09/04 08:45:18;;;;;;;0.57;0.30;;;;;;;17.38;100.00;100377.52;1607282;87;21653;-48
2022/09/04 08:48:08;;;;;;;0.45;0.30;;;;;;;17.38;100.00;100367.99;1690709;82;20953;-49
2022/09/04 08:50:59;;;;;;;0.72;0.30;;;;;;;17.36;100.00;100378.58;1691278;82;21156;-51
2022/09/04 08:53:44;;;;;;;1.32;0.30;;;;;;;17.38;100.00;100366.63;1691966;82;21631;-48
2022/09/04 08:56:38;;;;;;;3.15;0.40;;;;;;;17.38;100.00;100369.35;1687336;82;21257;-48
2022/09/04 08:59:43;;;;;;;1.85;0.30;;;;;;;17.28;100.00;100361.89;1657860;82;21030;-46
2022/09/04 09:02:28;;;;;;;0.40;0.30;;;;;;;17.09;100.00;100366.34;1693617;82;21042;-49
2022/09/04 09:05:37;;;;;;;1.02;0.40;;;;;;;17.06;100.00;100366.52;1693892;82;21137;-48
2022/09/04 09:08:29;;;;;;;0.78;0.28;;;;;;;17.11;100.00;100370.29;1691546;82;21116;-50
2022/09/04 09:11:22;;;;;;;3.02;0.40;;;;;;;17.17;100.00;100369.91;1702666;82;21118;-49
2022/09/04 09:14:25;;;;;;;0.80;0.40;;;;;;;17.16;100.00;100367.67;1694883;82;21524;-50
2022/09/04 09:16:58;;;;;;;0.50;0.30;;;;;;;17.18;100.00;100380.66;1697313;82;21448;-47
2022/09/04 09:19:53;;;;;;;3.20;0.53;;;;;;;17.23;100.00;100360.85;1690526;82;21058;-48
2022/09/04 09:22:33;;;;;;;4.60;0.50;;;;;;;17.34;100.00;100365.59;1640847;82;21295;-48
2022/09/04 09:25:21;;;;;;;0.42;0.40;;;;;;;17.46;100.00;100372.05;1691541;82;21141;-51
2022/09/04 09:28:24;;;;;;;0.75;0.40;;;;;;;17.58;100.00;100361.22;1694742;82;21058;-49
2022/09/04 09:31:27;;;;;;;0.55;0.40;;;;;;;17.73;100.00;100357.97;1701481;82;21080;-51
2022/09/04 09:34:10;;;;;;;1.22;0.35;;;;;;;17.88;100.00;100347.88;1723935;81;21467;-49
2022/09/04 09:37:01;;;;;;;0.57;0.40;;;;;;;17.97;100.00;100352.69;1661964;84;21487;-50
2022/09/04 09:39:48;;;;;;;0.70;0.40;;;;;;;18.06;100.00;100364.31;1658751;83;21251;-51
2022/09/04 09:42:37;;;;;;;0.57;0.30;;;;;;;18.05;100.00;100358.47;1638998;84;21066;-49
2022/09/04 09:45:21;;;;;;;0.50;0.30;;;;;;;17.93;100.00;100356.13;1722328;81;21374;-51
2022/09/04 09:48:07;;;;;;;;;;;;;;;17.79;100.00;100353.46;1725858;81;22459;-48
2022/09/04 09:51:02;;;;;;;2.05;0.40;;;;;;;17.68;100.00;100356.94;1722464;81;20212;-50
2022/09/04 09:54:09;;;;;;;0.53;0.30;;;;;;;17.66;100.00;100358.02;1659740;84;21469;-51
2022/09/04 09:56:42;;;;;;;2.00;0.30;;;;;;;17.75;100.00;100347.86;1715788;82;20979;-47
2022/09/04 09:59:32;;;;;;;1.57;0.30;;;;;;;17.87;100.00;100353.80;1717831;81;21030;-49
2022/09/04 10:02:21;;;;;;;0.30;0.30;;;;;;;17.96;100.00;100354.53;1718663;81;21014;-47
2022/09/04 10:05:28;;;;;;;0.33;0.30;;;;;;;18.08;100.00;100352.34;1716123;81;21087;-48
2022/09/04 10:08:36;;;;;;;0.98;0.25;;;;;;;18.21;100.00;100348.25;1684101;82;21011;-47
2022/09/04 10:11:32;;;;;;;0.20;0.20;;;;;;;18.33;100.00;100354.20;1691873;82;21027;-47
2022/09/04 10:14:27;;;;;;;0.33;0.20;;;;;;;18.38;100.00;100353.87;1649700;84;21490;-48
2022/09/04 10:17:18;;;;;;;0.40;0.30;;;;;;;18.32;100.00;100354.31;1720958;81;21510;-51
2022/09/04 10:20:09;;;;;;;3.33;0.37;;;;;;;18.31;100.00;100340.30;1713968;81;21450;-52
2022/09/04 10:22:48;;;;;;;1.98;0.40;;;;;;;18.32;100.00;100349.73;1717126;81;21172;-50
2022/09/04 10:26:10;;;;;;;0.50;0.37;;;;;;;18.38;100.00;100338.39;1716378;81;21607;-48
2022/09/04 10:29:14;;;;;;;1.02;0.20;;;;;;;18.42;100.00;100347.23;1717231;81;21090;-49
2022/09/04 10:32:03;;;;;;;1.17;0.30;;;;;;;18.42;100.00;100344.02;1716270;81;21043;-49
2022/09/04 10:35:08;;;;;;;0.40;0.20;;;;;;;18.44;100.00;100342.06;1711355;81;21085;-51
2022/09/04 10:37:58;;;;;;;0.40;0.28;;;;;;;18.52;100.00;100351.05;1717885;80;21097;-47
2022/09/04 10:41:08;;;;;;;0.50;0.20;;;;;;;18.54;100.00;100350.45;1726000;81;21037;-48
2022/09/04 10:44:07;;;;;;;0.50;0.20;;;;;;;18.53;100.00;100345.98;1715470;81;21090;-48
2022/09/04 10:46:39;;;;;;;0.35;0.30;;;;;;;18.50;100.00;100351.64;1711795;81;21529;-50
2022/09/04 10:49:51;;;;;;;1.60;0.30;;;;;;;18.44;100.00;100351.60;1716531;81;21021;-49
2022/09/04 10:52:56;;;;;;;0.30;0.30;;;;;;;18.32;100.00;100355.19;1702871;81;22706;-49
2022/09/04 10:55:44;;;;;;;0.55;0.30;;;;;;;18.15;100.00;100359.09;1661655;84;21082;-47
2022/09/04 10:58:38;;;;;;;2.33;0.30;;;;;;;17.96;100.00;100351.81;1717012;81;21036;-48
2022/09/04 11:01:13;;;;;;;0.30;0.30;;;;;;;17.90;100.00;100350.01;1725743;81;21022;-52
2022/09/04 11:03:49;;;;;;;2.02;0.30;;;;;;;17.95;100.00;100345.14;1718829;81;21494;-47
2022/09/04 11:06:36;;;;;;;0.50;0.30;;;;;;;18.03;100.00;100342.75;1719027;81;21111;-47
2022/09/04 11:09:27;;;;;;;0.45;0.30;;;;;;;18.17;100.00;100344.50;1715714;81;20930;-48
2022/09/04 11:12:36;;;;;;;0.93;0.30;;;;;;;18.32;100.00;100337.96;1702549;82;21566;-49
2022/09/04 11:15:41;;;;;;;1.22;0.30;;;;;;;18.45;100.00;100342.45;1721540;81;20894;-49
2022/09/04 11:18:33;;;;;;;1.27;0.50;;;;;;;18.53;100.00;100341.41;1725319;81;20894;-49
2022/09/04 11:21:20;;;;;;;0.50;0.30;;;;;;;18.49;100.00;100341.72;1716501;81;21347;-51
2022/09/04 11:24:02;;;;;;;2.45;0.45;;;;;;;18.42;100.00;100341.78;1718418;81;20950;-48
2022/09/04 11:26:56;;;;;;;0.40;0.30;;;;;;;18.32;100.00;100340.20;1717591;81;20942;-52
2022/09/04 11:30:02;;;;;;;4.15;0.33;;;;;;;18.30;100.00;100339.91;1721547;81;20906;-48
2022/09/04 11:33:06;;;;;;;2.67;0.30;;;;;;;18.26;100.00;100338.41;1627821;86;21378;-49
2022/09/04 11:35:53;;;;;;;0.60;0.30;;;;;;;18.22;100.00;100330.92;1695001;82;21179;-50
2022/09/04 11:38:57;;;;;;;0.40;0.30;;;;;;;18.27;100.00;100326.53;1698480;82;21117;-48
2022/09/04 11:41:56;;;;;;;1.80;0.40;;;;;;;18.37;100.00;100320.28;1693949;82;20935;-51
2022/09/04 11:44:48;;;;;;;0.20;0.20;;;;;;;18.47;100.00;100317.78;1695230;82;21127;-48
2022/09/04 11:47:35;;;;;;;0.80;0.20;;;;;;;18.56;100.00;100323.06;1701036;82;20982;-48
2022/09/04 11:50:22;;;;;;;1.47;0.35;;;;;;;18.63;100.00;100337.53;1691532;82;21615;-48
2022/09/04 11:53:18;;;;;;;1.15;0.20;;;;;;;18.57;100.00;100339.84;1635755;85;21082;-48
2022/09/04 11:56:27;;;;;;;0.60;0.30;;;;;;;18.47;100.00;100334.13;1646604;84;21080;-47
2022/09/04 11:59:22;;;;;;;0.35;0.30;;;;;;;18.34;100.00;100325.98;1697788;82;21101;-49
2022/09/04 12:02:23;;;;;;;0.60;0.50;;;;;;;18.20;100.00;100330.19;1699923;82;21116;-51
2022/09/04 12:05:15;;;;;;;1.95;0.30;;;;;;;18.08;100.00;100326.45;1686756;82;21268;-51
2022/09/04 12:08:01;;;;;;;2.60;0.20;;;;;;;18.04;100.00;100324.91;1704669;82;21026;-47
2022/09/04 12:11:00;;;;;;;1.75;0.30;;;;;;;18.12;100.00;100311.63;1697319;82;21511;-52
2022/09/04 12:13:38;;;;;;;2.05;0.30;;;;;;;18.24;100.00;100309.02;1699774;82;21072;-48
2022/09/04 12:16:40;;;;;;;1.98;0.40;;;;;;;18.39;100.00;100309.28;1701864;82;21053;-48
2022/09/04 12:19:46;;;;;;;1.47;0.30;;;;;;;18.49;100.00;100312.61;1693794;82;22201;-48
2022/09/04 12:22:37;;;;;;;1.55;0.30;;;;;;;18.54;100.00;100317.75;1660035;82;21137;-49
2022/09/04 12:25:48;;;;;;;0.90;0.30;;;;;;;18.50;100.00;100315.72;1663298;82;21046;-46
2022/09/04 12:28:23;;;;;;;1.15;0.20;;;;;;;18.43;100.00;100319.88;1692145;82;21069;-49
2022/09/04 12:31:21;;;;;;;5.28;0.30;;;;;;;18.32;100.00;100312.07;1691504;82;21047;-48
2022/09/04 12:34:43;;;;;;;4.45;0.35;;;;;;;18.27;100.00;100312.90;1638436;85;21784;-48
2022/09/04 12:37:52;;;;;;;1.37;0.40;;;;;;;18.20;100.00;100315.20;1701294;82;21362;-49
2022/09/04 12:41:00;;;;;;;0.60;0.40;;;;;;;18.19;100.00;100308.00;1692942;82;21149;-51
2022/09/04 12:44:11;;;;;;;0.30;0.20;;;;;;;18.26;100.00;100297.53;1696807;82;21627;-51
2022/09/04 12:47:20;;;;;;;1.20;0.30;;;;;;;18.38;100.00;100299.36;1696270;82;21392;-48
2022/09/04 12:50:29;;;;;;;0.40;0.30;;;;;;;18.50;100.00;100305.30;1690384;82;21720;-50
2022/09/04 12:53:04;;;;;;;0.30;0.20;;;;;;;18.58;100.00;100311.11;1691991;82;21165;-47
2022/09/04 12:55:44;;;;;;;0.40;0.20;;;;;;;18.52;100.00;100305.58;1686783;82;21734;-49
2022/09/04 12:58:32;;;;;;;3.40;0.30;;;;;;;18.46;100.00;100303.28;1694872;82;21161;-49
2022/09/04 13:01:44;;;;;;;1.85;0.30;;;;;;;18.38;100.00;100309.77;1696590;82;21382;-50
2022/09/04 13:04:48;;;;;;;0.50;0.20;;;;;;;18.27;100.00;100306.09;1619505;85;21157;-49
2022/09/04 13:07:26;;;;;;;3.30;0.30;;;;;;;18.19;100.00;100308.48;1659165;82;21077;-49
2022/09/04 13:10:11;;;;;;;0.40;0.30;;;;;;;18.12;100.00;100309.38;1697739;82;21053;-50
2022/09/04 13:12:49;;;;;;;0.40;0.30;;;;;;;18.06;100.00;100312.55;1695802;82;21041;-51